Buoy 13526

sailwx.info

Track history (hours):
 
Tides and Currents Weather Stations Pressure Air Temp Water Temp Dewpoint Dewpoint Depression Visibility Wind Speed Wind Dir Waves Ship Positions

Drifting buoy 13526

Last reported at 2016-Jul-24 07:38 UTC. Time now 2016-Jul-24 08:45 UTC.
Position N 30°02' W 057°21'.

Water temperature 28.3 ° C

Date/timePositionNaut miles runAvg speedWind from/ knotsBaromVisibWave heightAir tempDewpointWater temp
2016-Jul-24 07:38N 30°02' W 057°21'0 0.0 28.3
2016-Jul-24 07:35N 30°02' W 057°21'126.7 28.3
2016-Jul-24 07:32N 30°01' W 057°20'0 0.0 28.3
2016-Jul-24 06:00N 30°01' W 057°20'0 1.5 28.4
2016-Jul-24 05:52N 30°01' W 057°20'249.1 28.4
2016-Jul-24 05:49N 30°00' W 057°17'0 0.0 28.4
2016-Jul-24 02:30N 30°00' W 057°17'1 0.4 28.5
2016-Jul-24 00:55N 30°00' W 057°17'0 0.0 28.5
2016-Jul-24 00:49N 30°00' W 057°17'1 2.1 28.5
2016-Jul-24 00:12N 30°02' W 057°16'0 0.0 28.5
2016-Jul-23 22:37N 30°02' W 057°16'0 1.0 28.6
2016-Jul-23 22:21N 30°02' W 057°16'0 0.7 28.7
2016-Jul-23 21:52N 30°02' W 057°17'0 4.8 28.7
2016-Jul-23 21:46N 30°02' W 057°17'0 0.4 28.7
2016-Jul-23 20:53N 30°02' W 057°18'0 1.6 28.7
2016-Jul-23 20:48N 30°02' W 057°17'0 0.0 28.7
2016-Jul-23 20:43N 30°02' W 057°17'1 5.8 28.7
2016-Jul-23 20:37N 30°02' W 057°18'0 0.0 28.7
2016-Jul-23 20:13N 30°02' W 057°18'1 4.7 28.8
2016-Jul-23 20:03N 30°02' W 057°19'0 0.0 28.8
2016-Jul-23 19:13N 30°02' W 057°19'1 3.8 28.8
2016-Jul-23 19:05N 30°02' W 057°20'1 0.5 28.8
2016-Jul-23 17:33N 30°01' W 057°20'316.7 28.6
2016-Jul-23 17:22N 29°59' W 057°22'1 0.1 28.6
2016-Jul-23 13:36N 29°58' W 057°22'1 0.7 28.4
2016-Jul-23 12:11N 29°57' W 057°22'0 3.2 28.4
2016-Jul-23 12:07N 29°57' W 057°21'1 6.0 28.4
2016-Jul-23 11:53N 29°56' W 057°21'0 0.4
2016-Jul-23 11:13N 29°56' W 057°20'0 2.9 28.4
2016-Jul-23 11:07N 29°56' W 057°21'0 0.5 28.4
2016-Jul-23 10:32N 29°56' W 057°20'0 2.4 28.4
2016-Jul-23 10:24N 29°56' W 057°20'0 0.9 28.4
2016-Jul-23 10:16N 29°56' W 057°20'1 9.0 28.4
2016-Jul-23 10:12N 29°56' W 057°19'1 1.1 28.4
2016-Jul-23 09:33N 29°55' W 057°19'1 1.0 28.4
2016-Jul-23 08:50N 29°55' W 057°18'0 0.3 28.4
2016-Jul-23 08:40N 29°55' W 057°18'1 3.9 28.4
2016-Jul-23 08:32N 29°54' W 057°18'0 0.0 28.4
2016-Jul-23 07:52N 29°54' W 057°18'1 7.6 28.4
2016-Jul-23 07:41N 29°54' W 057°16'0 0.1 28.4
2016-Jul-23 06:06N 29°54' W 057°16'3 0.6 28.4
2016-Jul-23 01:07N 29°55' W 057°13'0 0.3 28.5
2016-Jul-22 23:34N 29°55' W 057°14'0 0.3 28.5
2016-Jul-22 23:08N 29°55' W 057°14'0 1.4 28.5
2016-Jul-22 23:03N 29°55' W 057°13'0 1.5 28.5
2016-Jul-22 22:48N 29°56' W 057°14'0 0.0 28.6
2016-Jul-22 22:06N 29°56' W 057°14'0 0.8 28.6
2016-Jul-22 22:02N 29°56' W 057°14'0 7.4 28.6
2016-Jul-22 21:59N 29°56' W 057°14'0 0.6 28.6
2016-Jul-22 21:28N 29°56' W 057°14'0 1.1 28.6
2016-Jul-22 21:05N 29°56' W 057°14'0 0.5 28.6
2016-Jul-22 20:25N 29°56' W 057°14'0 3.0 28.7
2016-Jul-22 20:21N 29°56' W 057°14'0 0.5 28.7
2016-Jul-22 19:31N 29°55' W 057°15'0 0.0 28.7
2016-Jul-22 19:24N 29°55' W 057°15'1 6.6 28.7
2016-Jul-22 19:16N 29°55' W 057°16'0 0.0 28.7
2016-Jul-22 17:44N 29°55' W 057°16'0 0.0 28.7
2016-Jul-22 17:40N 29°55' W 057°16'2 0.9 28.7
2016-Jul-22 15:29N 29°53' W 057°17'0 0.0 28.6
2016-Jul-22 13:59N 29°53' W 057°17'1 6.0 28.5
2016-Jul-22 13:46N 29°52' W 057°16'1 0.4
2016-Jul-22 12:11N 29°52' W 057°16'0 0.0 28.5
2016-Jul-22 11:35N 29°52' W 057°16'0 0.5 28.4
2016-Jul-22 10:49N 29°51' W 057°16'0 2.5 28.4
2016-Jul-22 10:44N 29°51' W 057°16'1 0.8 28.4
2016-Jul-22 09:53N 29°51' W 057°15'0 2.4 28.4
2016-Jul-22 09:50N 29°51' W 057°15'0 0.5 28.4
2016-Jul-22 09:07N 29°51' W 057°15'1 2.5 28.4
2016-Jul-22 08:54N 29°51' W 057°15'0 0.1 28.4
2016-Jul-22 08:03N 29°50' W 057°15'0 0.0 28.4
2016-Jul-22 08:00N 29°50' W 057°15'1 2.3 28.4
2016-Jul-22 07:28N 29°50' W 057°13'0 0.1 28.4
2016-Jul-22 06:19N 29°50' W 057°13'2 0.5 28.5
2016-Jul-22 02:23N 29°51' W 057°11'0 1.4 28.5
2016-Jul-22 02:16N 29°51' W 057°12'0 7.9 28.5
2016-Jul-22 02:13N 29°51' W 057°11'0 0.0 28.5
2016-Jul-22 01:37N 29°51' W 057°11'0 0.4 28.5
2016-Jul-22 01:29N 29°51' W 057°11'0 0.3 28.5
2016-Jul-22 00:43N 29°51' W 057°11'0 0.4 28.5
2016-Jul-22 00:34N 29°51' W 057°11'0 0.0 28.5
2016-Jul-21 23:54N 29°51' W 057°11'0 2.6 28.5
2016-Jul-21 23:51N 29°51' W 057°11'0 0.8 28.5
2016-Jul-21 23:35N 29°51' W 057°11'0 1.2 28.5
2016-Jul-21 23:14N 29°52' W 057°11'0 0.0 28.5
2016-Jul-21 21:37N 29°52' W 057°11'0 3.5 28.5
2016-Jul-21 21:30N 29°51' W 057°11'0 0.3 28.5
2016-Jul-21 20:38N 29°52' W 057°11'0 2.2 28.5
2016-Jul-21 20:28N 29°51' W 057°11'0 0.4 28.5
2016-Jul-21 19:56N 29°51' W 057°11'0 4.3 28.5
2016-Jul-21 19:53N 29°51' W 057°11'0 0.7 28.6
2016-Jul-21 19:33N 29°51' W 057°11'0 1.6 28.6
2016-Jul-21 19:26N 29°51' W 057°11'0 0.0 28.6
2016-Jul-21 17:54N 29°51' W 057°11'0 1.2 28.7
2016-Jul-21 17:50N 29°51' W 057°11'2 1.0 28.7
2016-Jul-21 16:11N 29°50' W 057°10'0 0.2 28.7
2016-Jul-21 15:03N 29°50' W 057°10'0 0.0 29.1
2016-Jul-21 14:20N 29°50' W 057°10'1 0.4 29.0
2016-Jul-21 12:38N 29°50' W 057°09'1 6.3 28.5
2016-Jul-21 12:33N 29°50' W 057°10'0 0.5 28.5
2016-Jul-21 11:58N 29°50' W 057°09'0 0.7 28.5
2016-Jul-21 11:18N 29°50' W 057°10'1 2.1 28.4
2016-Jul-21 10:53N 29°50' W 057°09'0 3.7 28.4
2016-Jul-21 10:50N 29°49' W 057°09'1 1.2 28.4
2016-Jul-21 10:12N 29°49' W 057°08'0 0.0 28.4
2016-Jul-21 09:43N 29°49' W 057°08'0 0.0 28.4
2016-Jul-21 09:38N 29°49' W 057°08'0 3.3 28.4
2016-Jul-21 09:34N 29°49' W 057°08'1 0.9 28.4
2016-Jul-21 08:37N 29°49' W 057°07'0 0.1 28.4
2016-Jul-21 08:12N 29°49' W 057°07'1 9.6 28.4
2016-Jul-21 08:05N 29°48' W 057°06'123.4 28.4
2016-Jul-21 08:02N 29°49' W 057°07'1 0.7 28.4
2016-Jul-21 06:30N 29°48' W 057°06'224.9 28.4
2016-Jul-21 06:24N 29°49' W 057°03'1 0.1 28.4
2016-Jul-21 02:38N 29°49' W 057°03'1 0.9 28.7
2016-Jul-21 01:54N 29°50' W 057°02'0 0.5 28.6
2016-Jul-21 01:05N 29°50' W 057°02'0 0.0 28.6
2016-Jul-21 00:57N 29°50' W 057°02'0 0.6 28.6
2016-Jul-21 00:17N 29°50' W 057°02'0 3.1 28.6
2016-Jul-21 00:16N 29°50' W 057°02'0 0.7 28.6
2016-Jul-21 00:06N 29°50' W 057°02'1 9.5 28.6
2016-Jul-21 00:02N 29°51' W 057°02'0 0.0 28.6
2016-Jul-20 23:22N 29°51' W 057°02'0 0.6 28.7
2016-Jul-20 22:31N 29°51' W 057°01'0 1.7 28.7
2016-Jul-20 22:24N 29°51' W 057°01'0 0.1 28.7
2016-Jul-20 22:02N 29°51' W 057°01'0 0.3 28.8
2016-Jul-20 20:50N 29°51' W 057°01'0 0.0 28.9
2016-Jul-20 20:49N 29°51' W 057°01'0 2.5 28.9
2016-Jul-20 20:41N 29°50' W 057°01'0 0.0 28.9
2016-Jul-20 20:23N 29°50' W 057°01'0 0.3 28.9
2016-Jul-20 19:47N 29°50' W 057°01'0 1.2 29.0
2016-Jul-20 19:44N 29°50' W 057°01'1 0.3 29.0
2016-Jul-20 18:08N 29°50' W 057°01'1 0.4 28.8
2016-Jul-20 16:23N 29°49' W 056°60'0 0.0 28.6
2016-Jul-20 15:24N 29°49' W 056°60'1 0.8 28.5
2016-Jul-20 14:41N 29°49' W 056°59'0 1.2 28.4
2016-Jul-20 14:36N 29°49' W 056°59'1 1.3 28.4
2016-Jul-20 13:47N 29°49' W 056°58'0 0.1 28.4
2016-Jul-20 13:01N 29°49' W 056°58'1 1.3 28.3
2016-Jul-20 11:58N 29°48' W 056°57'0 0.0 28.3
2016-Jul-20 11:06N 29°48' W 056°57'0 0.0 28.3
2016-Jul-20 11:03N 29°48' W 056°57'0 2.9 28.3
2016-Jul-20 10:58N 29°48' W 056°57'0 0.0 28.3
2016-Jul-20 10:48N 29°48' W 056°57'0 0.7 28.3
2016-Jul-20 10:08N 29°48' W 056°56'0 3.2 28.3
2016-Jul-20 10:05N 29°48' W 056°56'1 1.2 28.3
2016-Jul-20 08:57N 29°48' W 056°55'0 0.0 28.3
2016-Jul-20 08:33N 29°48' W 056°55'0 0.9 28.4
2016-Jul-20 08:23N 29°48' W 056°55'116.0 28.4
2016-Jul-20 08:19N 29°47' W 056°53'0 0.0 28.4
2016-Jul-20 06:47N 29°47' W 056°53'0 0.0 28.4
2016-Jul-20 06:44N 29°47' W 056°53'0 5.6 28.4
2016-Jul-20 06:39N 29°47' W 056°54'3 0.8 28.4
2016-Jul-20 02:14N 29°48' W 056°50'1 1.1 28.5
2016-Jul-20 01:23N 29°49' W 056°49'0 2.7 28.5
2016-Jul-20 01:17N 29°49' W 056°49'0 0.0 28.5
2016-Jul-20 00:37N 29°49' W 056°49'0 0.0 28.5
2016-Jul-20 00:33N 29°49' W 056°49'1 0.9 28.5
2016-Jul-19 23:44N 29°49' W 056°48'1 1.0 28.5
2016-Jul-19 23:01N 29°49' W 056°47'0 1.2 28.6
2016-Jul-19 22:53N 29°49' W 056°48'0 1.5 28.6
2016-Jul-19 22:36N 29°50' W 056°47'0 2.3 28.7
2016-Jul-19 22:32N 29°50' W 056°47'1 4.6 28.7
2016-Jul-19 22:21N 29°50' W 056°46'1 6.3 28.7
2016-Jul-19 22:16N 29°50' W 056°47'0 0.3 28.7
2016-Jul-19 21:01N 29°50' W 056°47'0 0.5 28.8
2016-Jul-19 20:53N 29°50' W 056°47'147.3
2016-Jul-19 20:52N 29°50' W 056°46'1 9.5 28.9
2016-Jul-19 20:47N 29°50' W 056°47'2 2.3 28.9
2016-Jul-19 19:54N 29°51' W 056°44'0 0.0 28.9
2016-Jul-19 18:19N 29°51' W 056°44'0 0.0 28.8
2016-Jul-19 18:11N 29°51' W 056°44'0 0.2 28.9
2016-Jul-19 16:37N 29°51' W 056°45'1 0.9 28.7
2016-Jul-19 14:58N 29°50' W 056°43'1 0.8 28.5
2016-Jul-19 14:07N 29°50' W 056°42'0 0.1 28.4
2016-Jul-19 13:21N 29°50' W 056°42'0 0.0 28.3
2016-Jul-19 13:16N 29°50' W 056°42'1 0.9 28.3
2016-Jul-19 12:23N 29°50' W 056°42'1 0.8 28.3
2016-Jul-19 11:12N 29°50' W 056°40'0 4.7 28.3
2016-Jul-19 11:08N 29°50' W 056°41'0 0.7 28.3
2016-Jul-19 10:43N 29°50' W 056°40'0 4.8 28.3
2016-Jul-19 10:40N 29°50' W 056°40'113.8 28.3
2016-Jul-19 10:35N 29°50' W 056°39'0 0.0 28.3
2016-Jul-19 09:39N 29°50' W 056°39'0 0.0 28.3
2016-Jul-19 09:33N 29°50' W 056°39'0 5.8 28.3
2016-Jul-19 09:28N 29°49' W 056°38'0 0.4 28.3
2016-Jul-19 09:05N 29°49' W 056°38'0 3.3 28.3
2016-Jul-19 08:57N 29°49' W 056°39'1 2.1 28.3
2016-Jul-19 08:36N 29°50' W 056°38'325.2 28.3
2016-Jul-19 08:28N 29°49' W 056°34'0 0.0 28.3
2016-Jul-19 06:53N 29°49' W 056°34'1 0.5 28.3
2016-Jul-19 05:13N 29°50' W 056°34'3 0.9 28.3
2016-Jul-19 01:37N 29°50' W 056°30'0 0.0 28.3
2016-Jul-19 00:53N 29°50' W 056°30'012.6 28.3
2016-Jul-19 00:51N 29°50' W 056°30'1 1.7 28.3
2016-Jul-19 00:05N 29°50' W 056°29'1 4.2 28.3
2016-Jul-18 23:56N 29°50' W 056°28'0 0.1 28.3
2016-Jul-18 23:28N 29°50' W 056°28'1 3.2 28.3
2016-Jul-18 23:16N 29°50' W 056°27'0 0.0 28.3
2016-Jul-18 22:52N 29°50' W 056°27'0 3.2 28.3
2016-Jul-18 22:49N 29°50' W 056°27'1 6.9 28.3
2016-Jul-18 22:44N 29°50' W 056°27'0 0.0 28.3
2016-Jul-18 21:52N 29°50' W 056°27'0 0.7 28.4
2016-Jul-18 21:14N 29°50' W 056°26'0 1.9 28.4
2016-Jul-18 21:07N 29°50' W 056°26'2 1.8 28.4
2016-Jul-18 20:06N 29°51' W 056°25'0 0.0 28.4
2016-Jul-18 19:28N 29°51' W 056°25'1 0.8 28.4
2016-Jul-18 18:31N 29°51' W 056°24'2 1.0 28.4
2016-Jul-18 16:48N 29°51' W 056°22'1 0.5 28.3
2016-Jul-18 14:29N 29°51' W 056°20'0 3.2 28.3
2016-Jul-18 14:23N 29°51' W 056°21'0 0.1 28.2
2016-Jul-18 13:40N 29°51' W 056°21'1 0.7 28.2
2016-Jul-18 12:43N 29°51' W 056°20'111.4 28.2
2016-Jul-18 12:38N 29°50' W 056°19'0 0.0
2016-Jul-18 11:35N 29°50' W 056°19'0 6.5 28.2
2016-Jul-18 11:31N 29°50' W 056°19'0 3.1 28.2
2016-Jul-18 11:28N 29°50' W 056°19'1 4.3 28.2
2016-Jul-18 11:20N 29°50' W 056°18'0 1.4 28.2
2016-Jul-18 11:11N 29°49' W 056°18'1 0.8 28.2
2016-Jul-18 09:53N 29°49' W 056°17'0 9.5 28.2
2016-Jul-18 09:51N 29°49' W 056°17'0 2.4 28.2
2016-Jul-18 09:45N 29°49' W 056°17'115.7 28.2
2016-Jul-18 09:40N 29°49' W 056°15'0 0.0 28.2
2016-Jul-18 09:36N 29°49' W 056°15'1 0.9 28.2
2016-Jul-18 08:45N 29°49' W 056°16'1 1.4 28.2
2016-Jul-18 07:53N 29°49' W 056°14'1 1.3 28.2
2016-Jul-18 07:07N 29°49' W 056°13'2 1.3 28.3
2016-Jul-18 05:24N 29°49' W 056°11'4 1.2 28.3
2016-Jul-18 02:05N 29°48' W 056°06'1 8.0 28.4
2016-Jul-18 01:57N 29°49' W 056°05'0 0.0 28.4
2016-Jul-18 01:19N 29°49' W 056°05'1 0.8 28.4
2016-Jul-18 00:25N 29°49' W 056°04'0 1.2 28.4
2016-Jul-18 00:22N 29°49' W 056°04'0 6.3 28.4
2016-Jul-18 00:18N 29°49' W 056°04'0 0.0 28.4
2016-Jul-17 23:59N 29°49' W 056°04'1 2.1 28.4
2016-Jul-17 23:35N 29°49' W 056°03'0 0.0 28.4
2016-Jul-17 23:13N 29°49' W 056°03'1 5.0 28.4
2016-Jul-17 22:58N 29°49' W 056°01'0 0.1 28.4
2016-Jul-17 22:23N 29°49' W 056°01'1 0.9 28.4
2016-Jul-17 21:38N 29°50' W 056°01'0 0.4 28.5
2016-Jul-17 21:29N 29°50' W 056°01'0 1.2 28.5
2016-Jul-17 21:23N 29°50' W 056°01'0 1.2 28.5
2016-Jul-17 21:20N 29°50' W 056°01'1 0.7 28.5
2016-Jul-17 19:52N 29°50' W 055°60'0 1.2 28.6
2016-Jul-17 19:48N 29°50' W 055°60'0 0.0 28.6
2016-Jul-17 19:42N 29°50' W 055°60'1 8.9 28.6
2016-Jul-17 19:37N 29°50' W 055°59'0 0.0 28.6
2016-Jul-17 18:42N 29°50' W 055°59'0 1.0 28.6
2016-Jul-17 18:39N 29°50' W 055°59'1 7.0 28.6
2016-Jul-17 18:34N 29°50' W 055°60'1 0.8 28.6
2016-Jul-17 17:01N 29°49' W 055°58'2 0.7 28.5
2016-Jul-17 14:49N 29°48' W 055°57'114.4 28.4
2016-Jul-17 14:46N 29°48' W 055°56'0 0.0 28.4
2016-Jul-17 14:03N 29°48' W 055°56'1 0.8 28.4
2016-Jul-17 13:08N 29°48' W 055°55'1 1.1 28.3
2016-Jul-17 12:22N 29°47' W 055°55'0 2.2 28.3
2016-Jul-17 12:12N 29°47' W 055°55'0 0.0 28.3
2016-Jul-17 11:57N 29°47' W 055°55'0 0.2 28.3
2016-Jul-17 11:40N 29°47' W 055°55'2 1.3 28.3
2016-Jul-17 10:07N 29°46' W 055°53'1 6.2 28.4
2016-Jul-17 09:53N 29°45' W 055°51'0 0.0 28.4
2016-Jul-17 08:53N 29°45' W 055°51'0 0.0
2016-Jul-17 08:42N 29°45' W 055°51'0 6.3 28.5
2016-Jul-17 08:38N 29°45' W 055°51'0 1.6 28.5
2016-Jul-17 08:27N 29°45' W 055°51'1 1.2 28.5
2016-Jul-17 07:20N 29°45' W 055°50'210.6 28.5
2016-Jul-17 07:10N 29°44' W 055°48'0 0.0 28.5
2016-Jul-17 05:35N 29°44' W 055°48'4 1.3 28.6
2016-Jul-17 02:25N 29°44' W 055°43'1 0.7 28.7
2016-Jul-17 01:36N 29°44' W 055°42'0 6.1 28.8
2016-Jul-17 01:32N 29°44' W 055°42'1 0.9 28.8
2016-Jul-17 00:47N 29°44' W 055°42'1 7.4 28.8
2016-Jul-17 00:39N 29°44' W 055°41'0 0.0 28.8
2016-Jul-16 23:53N 29°44' W 055°41'1 1.3 28.8
2016-Jul-16 23:10N 29°44' W 055°40'0 2.7 28.9
2016-Jul-16 23:00N 29°45' W 055°39'0 0.0 28.9
2016-Jul-16 22:54N 29°45' W 055°39'0 1.3 28.9
2016-Jul-16 22:49N 29°45' W 055°39'1 0.8 28.9
2016-Jul-16 22:03N 29°45' W 055°39'0 1.9 28.9
2016-Jul-16 21:52N 29°45' W 055°38'0 0.0 28.9
2016-Jul-16 21:35N 29°45' W 055°38'1 8.9 29.0
2016-Jul-16 21:31N 29°46' W 055°39'1 1.0 29.0
2016-Jul-16 20:22N 29°46' W 055°37'1 1.6 29.1
2016-Jul-16 19:53N 29°46' W 055°37'0 5.9 29.2
2016-Jul-16 19:48N 29°47' W 055°36'0 0.0 29.2
2016-Jul-16 18:53N 29°47' W 055°36'0 0.3 29.1
2016-Jul-16 18:44N 29°47' W 055°37'1 0.3 29.1
2016-Jul-16 14:23N 29°46' W 055°35'0 1.6 28.9
2016-Jul-16 14:17N 29°46' W 055°35'1 0.7 28.9
2016-Jul-16 13:29N 29°46' W 055°34'0 0.1 28.8
2016-Jul-16 12:39N 29°46' W 055°34'0 5.4 28.6
2016-Jul-16 12:34N 29°46' W 055°34'0 0.0 28.5
2016-Jul-16 11:51N 29°46' W 055°34'111.4 28.4
2016-Jul-16 11:47N 29°45' W 055°33'0 0.0 28.4
2016-Jul-16 11:42N 29°45' W 055°33'0 0.0 28.4
2016-Jul-16 10:47N 29°45' W 055°33'0 0.6 28.3
2016-Jul-16 10:36N 29°45' W 055°33'2104.8
2016-Jul-16 10:35N 29°45' W 055°31'0 0.0 28.3
2016-Jul-16 10:07N 29°45' W 055°31'0 0.0 28.2
2016-Jul-16 10:05N 29°45' W 055°31'0 0.2 28.2
2016-Jul-16 09:03N 29°45' W 055°32'0 0.4 28.2
2016-Jul-16 08:53N 29°45' W 055°32'0 0.0 28.2
2016-Jul-16 08:49N 29°45' W 055°32'2 1.2 28.2
2016-Jul-16 07:29N 29°44' W 055°30'0 7.4 28.3
2016-Jul-16 07:26N 29°44' W 055°29'114.0 28.3
2016-Jul-16 07:20N 29°45' W 055°28'3 1.8 28.3
2016-Jul-16 05:40N 29°46' W 055°25'1 0.3 28.3
2016-Jul-16 02:42N 29°47' W 055°24'0 0.0 28.9
2016-Jul-16 01:53N 29°47' W 055°24'142.5 28.9
2016-Jul-16 01:52N 29°47' W 055°24'0 0.0 28.9
2016-Jul-16 01:07N 29°47' W 055°24'1 5.2 29.0
2016-Jul-16 01:00N 29°48' W 055°23'0 0.2 29.0
2016-Jul-16 00:18N 29°48' W 055°23'1 6.6 29.1
2016-Jul-16 00:10N 29°48' W 055°23'0 0.5 29.1
2016-Jul-15 23:23N 29°48' W 055°22'110.4 29.1
2016-Jul-15 23:18N 29°49' W 055°23'0 0.0 29.1
2016-Jul-15 22:26N 29°49' W 055°23'1 8.3 29.1
2016-Jul-15 22:22N 29°49' W 055°23'0 0.5 29.1
2016-Jul-15 21:39N 29°50' W 055°23'0 0.5 29.2
2016-Jul-15 20:48N 29°50' W 055°23'0 0.5 29.4
2016-Jul-15 20:42N 29°50' W 055°23'0 5.4 29.4
2016-Jul-15 20:37N 29°50' W 055°23'0 0.0 29.6
2016-Jul-15 20:05N 29°50' W 055°23'0 1.2 29.8
2016-Jul-15 20:02N 29°50' W 055°23'0 0.3 29.8
2016-Jul-15 19:04N 29°51' W 055°23'0 1.4 29.9
2016-Jul-15 18:59N 29°51' W 055°23'115.8 29.9
2016-Jul-15 18:56N 29°51' W 055°24'0 0.0 29.9
2016-Jul-15 17:23N 29°51' W 055°24'1 0.5 30.5
2016-Jul-15 15:26N 29°51' W 055°25'0 0.0 29.7
2016-Jul-15 14:39N 29°51' W 055°25'0 0.6 29.4
2016-Jul-15 13:51N 29°50' W 055°25'0 0.5 29.2
2016-Jul-15 13:03N 29°50' W 055°25'0 0.1 28.8
2016-Jul-15 12:07N 29°50' W 055°25'0 2.9 28.5
2016-Jul-15 12:02N 29°50' W 055°25'113.4 28.5
2016-Jul-15 11:59N 29°49' W 055°24'0 0.0 28.5
2016-Jul-15 11:07N 29°49' W 055°24'0 6.2 28.4
2016-Jul-15 11:05N 29°49' W 055°24'2 1.9 28.4
2016-Jul-15 10:16N 29°48' W 055°23'0 0.0 28.3
2016-Jul-15 09:33N 29°48' W 055°23'0 0.0 28.3
2016-Jul-15 09:29N 29°48' W 055°23'0 8.1 28.3
2016-Jul-15 09:26N 29°48' W 055°23'2 0.9 28.3
2016-Jul-15 07:48N 29°47' W 055°22'0 1.4 28.3
2016-Jul-15 07:43N 29°47' W 055°21'212.2 28.3
2016-Jul-15 07:34N 29°47' W 055°19'0 0.0 28.3
2016-Jul-15 05:57N 29°47' W 055°19'4 1.1 28.3
2016-Jul-15 02:19N 29°50' W 055°16'0 0.0 28.4
2016-Jul-15 01:27N 29°50' W 055°16'0 0.5 28.5
2016-Jul-15 01:21N 29°50' W 055°16'1 1.1 28.5
2016-Jul-15 00:37N 29°50' W 055°15'0 1.0 28.5
2016-Jul-15 00:34N 29°50' W 055°15'1 1.2 28.6
2016-Jul-14 23:52N 29°51' W 055°15'0 1.6 28.7
2016-Jul-14 23:34N 29°52' W 055°15'0 0.0 28.7
2016-Jul-14 22:48N 29°52' W 055°15'1 1.2 28.7
2016-Jul-14 22:16N 29°52' W 055°16'0 0.7 28.8
2016-Jul-14 21:53N 29°52' W 055°16'0 0.7
2016-Jul-14 21:13N 29°52' W 055°17'0 0.4 28.8
2016-Jul-14 20:28N 29°52' W 055°17'0 0.0 28.9
2016-Jul-14 20:18N 29°52' W 055°17'0 0.6 28.9
2016-Jul-14 19:32N 29°53' W 055°17'1 1.8 28.8
2016-Jul-14 19:15N 29°52' W 055°17'1 5.9 28.8
2016-Jul-14 19:07N 29°52' W 055°18'0 0.0 28.8
2016-Jul-14 17:35N 29°52' W 055°18'1 7.7 28.7
2016-Jul-14 17:26N 29°50' W 055°18'0 0.0 28.7
2016-Jul-14 15:02N 29°50' W 055°18'0 0.3 28.5
2016-Jul-14 14:07N 29°50' W 055°18'010.0 28.4
2016-Jul-14 14:05N 29°50' W 055°19'0 0.5 28.4
2016-Jul-14 13:24N 29°50' W 055°18'0 0.0 28.3
2016-Jul-14 13:21N 29°50' W 055°18'0 3.1 28.3
2016-Jul-14 13:13N 29°50' W 055°18'0 0.5 28.3
2016-Jul-14 12:25N 29°50' W 055°19'1 8.1 28.2
2016-Jul-14 12:21N 29°49' W 055°19'0 0.0 28.2
2016-Jul-14 11:35N 29°49' W 055°19'1 0.7 28.2
2016-Jul-14 10:38N 29°49' W 055°18'0 2.1 28.2
2016-Jul-14 10:32N 29°49' W 055°18'0 0.6 28.2
2016-Jul-14 09:54N 29°48' W 055°18'1 9.4 28.2
2016-Jul-14 09:49N 29°48' W 055°17'0 0.1 28.2
2016-Jul-14 08:52N 29°48' W 055°17'0 0.5 28.2
2016-Jul-14 08:20N 29°48' W 055°17'0 2.5 28.3
2016-Jul-14 08:12N 29°47' W 055°17'0 0.2 28.3
2016-Jul-14 07:52N 29°47' W 055°17'0 5.3 28.3
2016-Jul-14 07:49N 29°47' W 055°16'112.4 28.3
2016-Jul-14 07:43N 29°47' W 055°15'   28.3
Track history (hours):
 
Tides and Currents Weather Stations Pressure Air Temp Water Temp Dewpoint Dewpoint Depression Visibility Wind Speed Wind Dir Waves Ship Positions

Drifting buoy 13526

Last reported at 2016-Jul-24 07:38 UTC. Time now 2016-Jul-24 08:45 UTC.
Position N 30°02' W 057°21'.

Water temperature 28.3 ° C

Date/timePositionNaut miles runAvg speedWind from/ knotsBaromVisibWave heightAir tempDewpointWater temp
2016-Jul-24 07:38N 30°02' W 057°21'0 0.0 28.3
2016-Jul-24 07:35N 30°02' W 057°21'126.7 28.3
2016-Jul-24 07:32N 30°01' W 057°20'0 0.0 28.3
2016-Jul-24 06:00N 30°01' W 057°20'0 1.5 28.4
2016-Jul-24 05:52N 30°01' W 057°20'249.1 28.4
2016-Jul-24 05:49N 30°00' W 057°17'0 0.0 28.4
2016-Jul-24 02:30N 30°00' W 057°17'1 0.4 28.5
2016-Jul-24 00:55N 30°00' W 057°17'0 0.0 28.5
2016-Jul-24 00:49N 30°00' W 057°17'1 2.1 28.5
2016-Jul-24 00:12N 30°02' W 057°16'0 0.0 28.5
2016-Jul-23 22:37N 30°02' W 057°16'0 1.0 28.6
2016-Jul-23 22:21N 30°02' W 057°16'0 0.7 28.7
2016-Jul-23 21:52N 30°02' W 057°17'0 4.8 28.7
2016-Jul-23 21:46N 30°02' W 057°17'0 0.4 28.7
2016-Jul-23 20:53N 30°02' W 057°18'0 1.6 28.7
2016-Jul-23 20:48N 30°02' W 057°17'0 0.0 28.7
2016-Jul-23 20:43N 30°02' W 057°17'1 5.8 28.7
2016-Jul-23 20:37N 30°02' W 057°18'0 0.0 28.7
2016-Jul-23 20:13N 30°02' W 057°18'1 4.7 28.8
2016-Jul-23 20:03N 30°02' W 057°19'0 0.0 28.8
2016-Jul-23 19:13N 30°02' W 057°19'1 3.8 28.8
2016-Jul-23 19:05N 30°02' W 057°20'1 0.5 28.8
2016-Jul-23 17:33N 30°01' W 057°20'316.7 28.6
2016-Jul-23 17:22N 29°59' W 057°22'1 0.1 28.6
2016-Jul-23 13:36N 29°58' W 057°22'1 0.7 28.4
2016-Jul-23 12:11N 29°57' W 057°22'0 3.2 28.4
2016-Jul-23 12:07N 29°57' W 057°21'1 6.0 28.4
2016-Jul-23 11:53N 29°56' W 057°21'0 0.4
2016-Jul-23 11:13N 29°56' W 057°20'0 2.9 28.4
2016-Jul-23 11:07N 29°56' W 057°21'0 0.5 28.4
2016-Jul-23 10:32N 29°56' W 057°20'0 2.4 28.4
2016-Jul-23 10:24N 29°56' W 057°20'0 0.9 28.4
2016-Jul-23 10:16N 29°56' W 057°20'1 9.0 28.4
2016-Jul-23 10:12N 29°56' W 057°19'1 1.1 28.4
2016-Jul-23 09:33N 29°55' W 057°19'1 1.0 28.4
2016-Jul-23 08:50N 29°55' W 057°18'0 0.3 28.4
2016-Jul-23 08:40N 29°55' W 057°18'1 3.9 28.4
2016-Jul-23 08:32N 29°54' W 057°18'0 0.0 28.4
2016-Jul-23 07:52N 29°54' W 057°18'1 7.6 28.4
2016-Jul-23 07:41N 29°54' W 057°16'0 0.1 28.4
2016-Jul-23 06:06N 29°54' W 057°16'3 0.6 28.4
2016-Jul-23 01:07N 29°55' W 057°13'0 0.3 28.5
2016-Jul-22 23:34N 29°55' W 057°14'0 0.3 28.5
2016-Jul-22 23:08N 29°55' W 057°14'0 1.4 28.5
2016-Jul-22 23:03N 29°55' W 057°13'0 1.5 28.5
2016-Jul-22 22:48N 29°56' W 057°14'0 0.0 28.6
2016-Jul-22 22:06N 29°56' W 057°14'0 0.8 28.6
2016-Jul-22 22:02N 29°56' W 057°14'0 7.4 28.6
2016-Jul-22 21:59N 29°56' W 057°14'0 0.6 28.6
2016-Jul-22 21:28N 29°56' W 057°14'0 1.1 28.6
2016-Jul-22 21:05N 29°56' W 057°14'0 0.5 28.6
2016-Jul-22 20:25N 29°56' W 057°14'0 3.0 28.7
2016-Jul-22 20:21N 29°56' W 057°14'0 0.5 28.7
2016-Jul-22 19:31N 29°55' W 057°15'0 0.0 28.7
2016-Jul-22 19:24N 29°55' W 057°15'1 6.6 28.7
2016-Jul-22 19:16N 29°55' W 057°16'0 0.0 28.7
2016-Jul-22 17:44N 29°55' W 057°16'0 0.0 28.7
2016-Jul-22 17:40N 29°55' W 057°16'2 0.9 28.7
2016-Jul-22 15:29N 29°53' W 057°17'0 0.0 28.6
2016-Jul-22 13:59N 29°53' W 057°17'1 6.0 28.5
2016-Jul-22 13:46N 29°52' W 057°16'1 0.4
2016-Jul-22 12:11N 29°52' W 057°16'0 0.0 28.5
2016-Jul-22 11:35N 29°52' W 057°16'0 0.5 28.4
2016-Jul-22 10:49N 29°51' W 057°16'0 2.5 28.4
2016-Jul-22 10:44N 29°51' W 057°16'1 0.8 28.4
2016-Jul-22 09:53N 29°51' W 057°15'0 2.4 28.4
2016-Jul-22 09:50N 29°51' W 057°15'0 0.5 28.4
2016-Jul-22 09:07N 29°51' W 057°15'1 2.5 28.4
2016-Jul-22 08:54N 29°51' W 057°15'0 0.1 28.4
2016-Jul-22 08:03N 29°50' W 057°15'0 0.0 28.4
2016-Jul-22 08:00N 29°50' W 057°15'1 2.3 28.4
2016-Jul-22 07:28N 29°50' W 057°13'0 0.1 28.4
2016-Jul-22 06:19N 29°50' W 057°13'2 0.5 28.5
2016-Jul-22 02:23N 29°51' W 057°11'0 1.4 28.5
2016-Jul-22 02:16N 29°51' W 057°12'0 7.9 28.5
2016-Jul-22 02:13N 29°51' W 057°11'0 0.0 28.5
2016-Jul-22 01:37N 29°51' W 057°11'0 0.4 28.5
2016-Jul-22 01:29N 29°51' W 057°11'0 0.3 28.5
2016-Jul-22 00:43N 29°51' W 057°11'0 0.4 28.5
2016-Jul-22 00:34N 29°51' W 057°11'0 0.0 28.5
2016-Jul-21 23:54N 29°51' W 057°11'0 2.6 28.5
2016-Jul-21 23:51N 29°51' W 057°11'0 0.8 28.5
2016-Jul-21 23:35N 29°51' W 057°11'0 1.2 28.5
2016-Jul-21 23:14N 29°52' W 057°11'0 0.0 28.5
2016-Jul-21 21:37N 29°52' W 057°11'0 3.5 28.5
2016-Jul-21 21:30N 29°51' W 057°11'0 0.3 28.5
2016-Jul-21 20:38N 29°52' W 057°11'0 2.2 28.5
2016-Jul-21 20:28N 29°51' W 057°11'0 0.4 28.5
2016-Jul-21 19:56N 29°51' W 057°11'0 4.3 28.5
2016-Jul-21 19:53N 29°51' W 057°11'0 0.7 28.6
2016-Jul-21 19:33N 29°51' W 057°11'0 1.6 28.6
2016-Jul-21 19:26N 29°51' W 057°11'0 0.0 28.6
2016-Jul-21 17:54N 29°51' W 057°11'0 1.2 28.7
2016-Jul-21 17:50N 29°51' W 057°11'2 1.0 28.7
2016-Jul-21 16:11N 29°50' W 057°10'0 0.2 28.7
2016-Jul-21 15:03N 29°50' W 057°10'0 0.0 29.1
2016-Jul-21 14:20N 29°50' W 057°10'1 0.4 29.0
2016-Jul-21 12:38N 29°50' W 057°09'1 6.3 28.5
2016-Jul-21 12:33N 29°50' W 057°10'0 0.5 28.5
2016-Jul-21 11:58N 29°50' W 057°09'0 0.7 28.5
2016-Jul-21 11:18N 29°50' W 057°10'1 2.1 28.4
2016-Jul-21 10:53N 29°50' W 057°09'0 3.7 28.4
2016-Jul-21 10:50N 29°49' W 057°09'1 1.2 28.4
2016-Jul-21 10:12N 29°49' W 057°08'0 0.0 28.4
2016-Jul-21 09:43N 29°49' W 057°08'0 0.0 28.4
2016-Jul-21 09:38N 29°49' W 057°08'0 3.3 28.4
2016-Jul-21 09:34N 29°49' W 057°08'1 0.9 28.4
2016-Jul-21 08:37N 29°49' W 057°07'0 0.1 28.4
2016-Jul-21 08:12N 29°49' W 057°07'1 9.6 28.4
2016-Jul-21 08:05N 29°48' W 057°06'123.4 28.4
2016-Jul-21 08:02N 29°49' W 057°07'1 0.7 28.4
2016-Jul-21 06:30N 29°48' W 057°06'224.9 28.4
2016-Jul-21 06:24N 29°49' W 057°03'1 0.1 28.4
2016-Jul-21 02:38N 29°49' W 057°03'1 0.9 28.7
2016-Jul-21 01:54N 29°50' W 057°02'0 0.5 28.6
2016-Jul-21 01:05N 29°50' W 057°02'0 0.0 28.6
2016-Jul-21 00:57N 29°50' W 057°02'0 0.6 28.6
2016-Jul-21 00:17N 29°50' W 057°02'0 3.1 28.6
2016-Jul-21 00:16N 29°50' W 057°02'0 0.7 28.6
2016-Jul-21 00:06N 29°50' W 057°02'1 9.5 28.6
2016-Jul-21 00:02N 29°51' W 057°02'0 0.0 28.6
2016-Jul-20 23:22N 29°51' W 057°02'0 0.6 28.7
2016-Jul-20 22:31N 29°51' W 057°01'0 1.7 28.7
2016-Jul-20 22:24N 29°51' W 057°01'0 0.1 28.7
2016-Jul-20 22:02N 29°51' W 057°01'0 0.3 28.8
2016-Jul-20 20:50N 29°51' W 057°01'0 0.0 28.9
2016-Jul-20 20:49N 29°51' W 057°01'0 2.5 28.9
2016-Jul-20 20:41N 29°50' W 057°01'0 0.0 28.9
2016-Jul-20 20:23N 29°50' W 057°01'0 0.3 28.9
2016-Jul-20 19:47N 29°50' W 057°01'0 1.2 29.0
2016-Jul-20 19:44N 29°50' W 057°01'1 0.3 29.0
2016-Jul-20 18:08N 29°50' W 057°01'1 0.4 28.8
2016-Jul-20 16:23N 29°49' W 056°60'0 0.0 28.6
2016-Jul-20 15:24N 29°49' W 056°60'1 0.8 28.5
2016-Jul-20 14:41N 29°49' W 056°59'0 1.2 28.4
2016-Jul-20 14:36N 29°49' W 056°59'1 1.3 28.4
2016-Jul-20 13:47N 29°49' W 056°58'0 0.1 28.4
2016-Jul-20 13:01N 29°49' W 056°58'1 1.3 28.3
2016-Jul-20 11:58N 29°48' W 056°57'0 0.0 28.3
2016-Jul-20 11:06N 29°48' W 056°57'0 0.0 28.3
2016-Jul-20 11:03N 29°48' W 056°57'0 2.9 28.3
2016-Jul-20 10:58N 29°48' W 056°57'0 0.0 28.3
2016-Jul-20 10:48N 29°48' W 056°57'0 0.7 28.3
2016-Jul-20 10:08N 29°48' W 056°56'0 3.2 28.3
2016-Jul-20 10:05N 29°48' W 056°56'1 1.2 28.3
2016-Jul-20 08:57N 29°48' W 056°55'0 0.0 28.3
2016-Jul-20 08:33N 29°48' W 056°55'0 0.9 28.4
2016-Jul-20 08:23N 29°48' W 056°55'116.0 28.4
2016-Jul-20 08:19N 29°47' W 056°53'0 0.0 28.4
2016-Jul-20 06:47N 29°47' W 056°53'0 0.0 28.4
2016-Jul-20 06:44N 29°47' W 056°53'0 5.6 28.4
2016-Jul-20 06:39N 29°47' W 056°54'3 0.8 28.4
2016-Jul-20 02:14N 29°48' W 056°50'1 1.1 28.5
2016-Jul-20 01:23N 29°49' W 056°49'0 2.7 28.5
2016-Jul-20 01:17N 29°49' W 056°49'0 0.0 28.5
2016-Jul-20 00:37N 29°49' W 056°49'0 0.0 28.5
2016-Jul-20 00:33N 29°49' W 056°49'1 0.9 28.5
2016-Jul-19 23:44N 29°49' W 056°48'1 1.0 28.5
2016-Jul-19 23:01N 29°49' W 056°47'0 1.2 28.6
2016-Jul-19 22:53N 29°49' W 056°48'0 1.5 28.6
2016-Jul-19 22:36N 29°50' W 056°47'0 2.3 28.7
2016-Jul-19 22:32N 29°50' W 056°47'1 4.6 28.7
2016-Jul-19 22:21N 29°50' W 056°46'1 6.3 28.7
2016-Jul-19 22:16N 29°50' W 056°47'0 0.3 28.7
2016-Jul-19 21:01N 29°50' W 056°47'0 0.5 28.8
2016-Jul-19 20:53N 29°50' W 056°47'147.3
2016-Jul-19 20:52N 29°50' W 056°46'1 9.5 28.9
2016-Jul-19 20:47N 29°50' W 056°47'2 2.3 28.9
2016-Jul-19 19:54N 29°51' W 056°44'0 0.0 28.9
2016-Jul-19 18:19N 29°51' W 056°44'0 0.0 28.8
2016-Jul-19 18:11N 29°51' W 056°44'0 0.2 28.9
2016-Jul-19 16:37N 29°51' W 056°45'1 0.9 28.7
2016-Jul-19 14:58N 29°50' W 056°43'1 0.8 28.5
2016-Jul-19 14:07N 29°50' W 056°42'0 0.1 28.4
2016-Jul-19 13:21N 29°50' W 056°42'0 0.0 28.3
2016-Jul-19 13:16N 29°50' W 056°42'1 0.9 28.3
2016-Jul-19 12:23N 29°50' W 056°42'1 0.8 28.3
2016-Jul-19 11:12N 29°50' W 056°40'0 4.7 28.3
2016-Jul-19 11:08N 29°50' W 056°41'0 0.7 28.3
2016-Jul-19 10:43N 29°50' W 056°40'0 4.8 28.3
2016-Jul-19 10:40N 29°50' W 056°40'113.8 28.3
2016-Jul-19 10:35N 29°50' W 056°39'0 0.0 28.3
2016-Jul-19 09:39N 29°50' W 056°39'0 0.0 28.3
2016-Jul-19 09:33N 29°50' W 056°39'0 5.8 28.3
2016-Jul-19 09:28N 29°49' W 056°38'0 0.4 28.3
2016-Jul-19 09:05N 29°49' W 056°38'0 3.3 28.3
2016-Jul-19 08:57N 29°49' W 056°39'1 2.1 28.3
2016-Jul-19 08:36N 29°50' W 056°38'325.2 28.3
2016-Jul-19 08:28N 29°49' W 056°34'0 0.0 28.3
2016-Jul-19 06:53N 29°49' W 056°34'1 0.5 28.3
2016-Jul-19 05:13N 29°50' W 056°34'3 0.9 28.3
2016-Jul-19 01:37N 29°50' W 056°30'0 0.0 28.3
2016-Jul-19 00:53N 29°50' W 056°30'012.6 28.3
2016-Jul-19 00:51N 29°50' W 056°30'1 1.7 28.3
2016-Jul-19 00:05N 29°50' W 056°29'1 4.2 28.3
2016-Jul-18 23:56N 29°50' W 056°28'0 0.1 28.3
2016-Jul-18 23:28N 29°50' W 056°28'1 3.2 28.3
2016-Jul-18 23:16N 29°50' W 056°27'0 0.0 28.3
2016-Jul-18 22:52N 29°50' W 056°27'0 3.2 28.3
2016-Jul-18 22:49N 29°50' W 056°27'1 6.9 28.3
2016-Jul-18 22:44N 29°50' W 056°27'0 0.0 28.3
2016-Jul-18 21:52N 29°50' W 056°27'0 0.7 28.4
2016-Jul-18 21:14N 29°50' W 056°26'0 1.9 28.4
2016-Jul-18 21:07N 29°50' W 056°26'2 1.8 28.4
2016-Jul-18 20:06N 29°51' W 056°25'0 0.0 28.4
2016-Jul-18 19:28N 29°51' W 056°25'1 0.8 28.4
2016-Jul-18 18:31N 29°51' W 056°24'2 1.0 28.4
2016-Jul-18 16:48N 29°51' W 056°22'1 0.5 28.3
2016-Jul-18 14:29N 29°51' W 056°20'0 3.2 28.3
2016-Jul-18 14:23N 29°51' W 056°21'0 0.1 28.2
2016-Jul-18 13:40N 29°51' W 056°21'1 0.7 28.2
2016-Jul-18 12:43N 29°51' W 056°20'111.4 28.2
2016-Jul-18 12:38N 29°50' W 056°19'0 0.0
2016-Jul-18 11:35N 29°50' W 056°19'0 6.5 28.2
2016-Jul-18 11:31N 29°50' W 056°19'0 3.1 28.2
2016-Jul-18 11:28N 29°50' W 056°19'1 4.3 28.2
2016-Jul-18 11:20N 29°50' W 056°18'0 1.4 28.2
2016-Jul-18 11:11N 29°49' W 056°18'1 0.8 28.2
2016-Jul-18 09:53N 29°49' W 056°17'0 9.5 28.2
2016-Jul-18 09:51N 29°49' W 056°17'0 2.4 28.2
2016-Jul-18 09:45N 29°49' W 056°17'115.7 28.2
2016-Jul-18 09:40N 29°49' W 056°15'0 0.0 28.2
2016-Jul-18 09:36N 29°49' W 056°15'1 0.9 28.2
2016-Jul-18 08:45N 29°49' W 056°16'1 1.4 28.2
2016-Jul-18 07:53N 29°49' W 056°14'1 1.3 28.2
2016-Jul-18 07:07N 29°49' W 056°13'2 1.3 28.3
2016-Jul-18 05:24N 29°49' W 056°11'4 1.2 28.3
2016-Jul-18 02:05N 29°48' W 056°06'1 8.0 28.4
2016-Jul-18 01:57N 29°49' W 056°05'0 0.0 28.4
2016-Jul-18 01:19N 29°49' W 056°05'1 0.8 28.4
2016-Jul-18 00:25N 29°49' W 056°04'0 1.2 28.4
2016-Jul-18 00:22N 29°49' W 056°04'0 6.3 28.4
2016-Jul-18 00:18N 29°49' W 056°04'0 0.0 28.4
2016-Jul-17 23:59N 29°49' W 056°04'1 2.1 28.4
2016-Jul-17 23:35N 29°49' W 056°03'0 0.0 28.4
2016-Jul-17 23:13N 29°49' W 056°03'1 5.0 28.4
2016-Jul-17 22:58N 29°49' W 056°01'0 0.1 28.4
2016-Jul-17 22:23N 29°49' W 056°01'1 0.9 28.4
2016-Jul-17 21:38N 29°50' W 056°01'0 0.4 28.5
2016-Jul-17 21:29N 29°50' W 056°01'0 1.2 28.5
2016-Jul-17 21:23N 29°50' W 056°01'0 1.2 28.5
2016-Jul-17 21:20N 29°50' W 056°01'1 0.7 28.5
2016-Jul-17 19:52N 29°50' W 055°60'0 1.2 28.6
2016-Jul-17 19:48N 29°50' W 055°60'0 0.0 28.6
2016-Jul-17 19:42N 29°50' W 055°60'1 8.9 28.6
2016-Jul-17 19:37N 29°50' W 055°59'0 0.0 28.6
2016-Jul-17 18:42N 29°50' W 055°59'0 1.0 28.6
2016-Jul-17 18:39N 29°50' W 055°59'1 7.0 28.6
2016-Jul-17 18:34N 29°50' W 055°60'1 0.8 28.6
2016-Jul-17 17:01N 29°49' W 055°58'2 0.7 28.5
2016-Jul-17 14:49N 29°48' W 055°57'114.4 28.4
2016-Jul-17 14:46N 29°48' W 055°56'0 0.0 28.4
2016-Jul-17 14:03N 29°48' W 055°56'1 0.8 28.4
2016-Jul-17 13:08N 29°48' W 055°55'1 1.1 28.3
2016-Jul-17 12:22N 29°47' W 055°55'0 2.2 28.3
2016-Jul-17 12:12N 29°47' W 055°55'0 0.0 28.3
2016-Jul-17 11:57N 29°47' W 055°55'0 0.2 28.3
2016-Jul-17 11:40N 29°47' W 055°55'2 1.3 28.3
2016-Jul-17 10:07N 29°46' W 055°53'1 6.2 28.4
2016-Jul-17 09:53N 29°45' W 055°51'0 0.0 28.4
2016-Jul-17 08:53N 29°45' W 055°51'0 0.0
2016-Jul-17 08:42N 29°45' W 055°51'0 6.3 28.5
2016-Jul-17 08:38N 29°45' W 055°51'0 1.6 28.5
2016-Jul-17 08:27N 29°45' W 055°51'1 1.2 28.5
2016-Jul-17 07:20N 29°45' W 055°50'210.6 28.5
2016-Jul-17 07:10N 29°44' W 055°48'0 0.0 28.5
2016-Jul-17 05:35N 29°44' W 055°48'4 1.3 28.6
2016-Jul-17 02:25N 29°44' W 055°43'1 0.7 28.7
2016-Jul-17 01:36N 29°44' W 055°42'0 6.1 28.8
2016-Jul-17 01:32N 29°44' W 055°42'1 0.9 28.8
2016-Jul-17 00:47N 29°44' W 055°42'1 7.4 28.8
2016-Jul-17 00:39N 29°44' W 055°41'0 0.0 28.8
2016-Jul-16 23:53N 29°44' W 055°41'1 1.3 28.8
2016-Jul-16 23:10N 29°44' W 055°40'0 2.7 28.9
2016-Jul-16 23:00N 29°45' W 055°39'0 0.0 28.9
2016-Jul-16 22:54N 29°45' W 055°39'0 1.3 28.9
2016-Jul-16 22:49N 29°45' W 055°39'1 0.8 28.9
2016-Jul-16 22:03N 29°45' W 055°39'0 1.9 28.9
2016-Jul-16 21:52N 29°45' W 055°38'0 0.0 28.9
2016-Jul-16 21:35N 29°45' W 055°38'1 8.9 29.0
2016-Jul-16 21:31N 29°46' W 055°39'1 1.0 29.0
2016-Jul-16 20:22N 29°46' W 055°37'1 1.6 29.1
2016-Jul-16 19:53N 29°46' W 055°37'0 5.9 29.2
2016-Jul-16 19:48N 29°47' W 055°36'0 0.0 29.2
2016-Jul-16 18:53N 29°47' W 055°36'0 0.3 29.1
2016-Jul-16 18:44N 29°47' W 055°37'1 0.3 29.1
2016-Jul-16 14:23N 29°46' W 055°35'0 1.6 28.9
2016-Jul-16 14:17N 29°46' W 055°35'1 0.7 28.9
2016-Jul-16 13:29N 29°46' W 055°34'0 0.1 28.8
2016-Jul-16 12:39N 29°46' W 055°34'0 5.4 28.6
2016-Jul-16 12:34N 29°46' W 055°34'0 0.0 28.5
2016-Jul-16 11:51N 29°46' W 055°34'111.4 28.4
2016-Jul-16 11:47N 29°45' W 055°33'0 0.0 28.4
2016-Jul-16 11:42N 29°45' W 055°33'0 0.0 28.4
2016-Jul-16 10:47N 29°45' W 055°33'0 0.6 28.3
2016-Jul-16 10:36N 29°45' W 055°33'2104.8
2016-Jul-16 10:35N 29°45' W 055°31'0 0.0 28.3
2016-Jul-16 10:07N 29°45' W 055°31'0 0.0 28.2
2016-Jul-16 10:05N 29°45' W 055°31'0 0.2 28.2
2016-Jul-16 09:03N 29°45' W 055°32'0 0.4 28.2
2016-Jul-16 08:53N 29°45' W 055°32'0 0.0 28.2
2016-Jul-16 08:49N 29°45' W 055°32'2 1.2 28.2
2016-Jul-16 07:29N 29°44' W 055°30'0 7.4 28.3
2016-Jul-16 07:26N 29°44' W 055°29'114.0 28.3
2016-Jul-16 07:20N 29°45' W 055°28'3 1.8 28.3
2016-Jul-16 05:40N 29°46' W 055°25'1 0.3 28.3
2016-Jul-16 02:42N 29°47' W 055°24'0 0.0 28.9
2016-Jul-16 01:53N 29°47' W 055°24'142.5 28.9
2016-Jul-16 01:52N 29°47' W 055°24'0 0.0 28.9
2016-Jul-16 01:07N 29°47' W 055°24'1 5.2 29.0
2016-Jul-16 01:00N 29°48' W 055°23'0 0.2 29.0
2016-Jul-16 00:18N 29°48' W 055°23'1 6.6 29.1
2016-Jul-16 00:10N 29°48' W 055°23'0 0.5 29.1
2016-Jul-15 23:23N 29°48' W 055°22'110.4 29.1
2016-Jul-15 23:18N 29°49' W 055°23'0 0.0 29.1
2016-Jul-15 22:26N 29°49' W 055°23'1 8.3 29.1
2016-Jul-15 22:22N 29°49' W 055°23'0 0.5 29.1
2016-Jul-15 21:39N 29°50' W 055°23'0 0.5 29.2
2016-Jul-15 20:48N 29°50' W 055°23'0 0.5 29.4
2016-Jul-15 20:42N 29°50' W 055°23'0 5.4 29.4
2016-Jul-15 20:37N 29°50' W 055°23'0 0.0 29.6
2016-Jul-15 20:05N 29°50' W 055°23'0 1.2 29.8
2016-Jul-15 20:02N 29°50' W 055°23'0 0.3 29.8
2016-Jul-15 19:04N 29°51' W 055°23'0 1.4 29.9
2016-Jul-15 18:59N 29°51' W 055°23'115.8 29.9
2016-Jul-15 18:56N 29°51' W 055°24'0 0.0 29.9
2016-Jul-15 17:23N 29°51' W 055°24'1 0.5 30.5
2016-Jul-15 15:26N 29°51' W 055°25'0 0.0 29.7
2016-Jul-15 14:39N 29°51' W 055°25'0 0.6 29.4
2016-Jul-15 13:51N 29°50' W 055°25'0 0.5 29.2
2016-Jul-15 13:03N 29°50' W 055°25'0 0.1 28.8
2016-Jul-15 12:07N 29°50' W 055°25'0 2.9 28.5
2016-Jul-15 12:02N 29°50' W 055°25'113.4 28.5
2016-Jul-15 11:59N 29°49' W 055°24'0 0.0 28.5
2016-Jul-15 11:07N 29°49' W 055°24'0 6.2 28.4
2016-Jul-15 11:05N 29°49' W 055°24'2 1.9 28.4
2016-Jul-15 10:16N 29°48' W 055°23'0 0.0 28.3
2016-Jul-15 09:33N 29°48' W 055°23'0 0.0 28.3
2016-Jul-15 09:29N 29°48' W 055°23'0 8.1 28.3
2016-Jul-15 09:26N 29°48' W 055°23'2 0.9 28.3
2016-Jul-15 07:48N 29°47' W 055°22'0 1.4 28.3
2016-Jul-15 07:43N 29°47' W 055°21'212.2 28.3
2016-Jul-15 07:34N 29°47' W 055°19'0 0.0 28.3
2016-Jul-15 05:57N 29°47' W 055°19'4 1.1 28.3
2016-Jul-15 02:19N 29°50' W 055°16'0 0.0 28.4
2016-Jul-15 01:27N 29°50' W 055°16'0 0.5 28.5
2016-Jul-15 01:21N 29°50' W 055°16'1 1.1 28.5
2016-Jul-15 00:37N 29°50' W 055°15'0 1.0 28.5
2016-Jul-15 00:34N 29°50' W 055°15'1 1.2 28.6
2016-Jul-14 23:52N 29°51' W 055°15'0 1.6 28.7
2016-Jul-14 23:34N 29°52' W 055°15'0 0.0 28.7
2016-Jul-14 22:48N 29°52' W 055°15'1 1.2 28.7
2016-Jul-14 22:16N 29°52' W 055°16'0 0.7 28.8
2016-Jul-14 21:53N 29°52' W 055°16'0 0.7
2016-Jul-14 21:13N 29°52' W 055°17'0 0.4 28.8
2016-Jul-14 20:28N 29°52' W 055°17'0 0.0 28.9
2016-Jul-14 20:18N 29°52' W 055°17'0 0.6 28.9
2016-Jul-14 19:32N 29°53' W 055°17'1 1.8 28.8
2016-Jul-14 19:15N 29°52' W 055°17'1 5.9 28.8
2016-Jul-14 19:07N 29°52' W 055°18'0 0.0 28.8
2016-Jul-14 17:35N 29°52' W 055°18'1 7.7 28.7
2016-Jul-14 17:26N 29°50' W 055°18'0 0.0 28.7
2016-Jul-14 15:02N 29°50' W 055°18'0 0.3 28.5
2016-Jul-14 14:07N 29°50' W 055°18'010.0 28.4
2016-Jul-14 14:05N 29°50' W 055°19'0 0.5 28.4
2016-Jul-14 13:24N 29°50' W 055°18'0 0.0 28.3
2016-Jul-14 13:21N 29°50' W 055°18'0 3.1 28.3
2016-Jul-14 13:13N 29°50' W 055°18'0 0.5 28.3
2016-Jul-14 12:25N 29°50' W 055°19'1 8.1 28.2
2016-Jul-14 12:21N 29°49' W 055°19'0 0.0 28.2
2016-Jul-14 11:35N 29°49' W 055°19'1 0.7 28.2
2016-Jul-14 10:38N 29°49' W 055°18'0 2.1 28.2
2016-Jul-14 10:32N 29°49' W 055°18'0 0.6 28.2
2016-Jul-14 09:54N 29°48' W 055°18'1 9.4 28.2
2016-Jul-14 09:49N 29°48' W 055°17'0 0.1 28.2
2016-Jul-14 08:52N 29°48' W 055°17'0 0.5 28.2
2016-Jul-14 08:20N 29°48' W 055°17'0 2.5 28.3
2016-Jul-14 08:12N 29°47' W 055°17'0 0.2 28.3
2016-Jul-14 07:52N 29°47' W 055°17'0 5.3 28.3
2016-Jul-14 07:49N 29°47' W 055°16'112.4 28.3
2016-Jul-14 07:43N 29°47' W 055°15'   28.3

Dump ship's entire track history